Austin, TX (78710)

1:40 PM CST on February 14, 2016 (GMT -0600)
North Acres | | Change Station
CLOSE
Current Station
Personal Weather Station
Location: Austin, TX
Elevation: 686 ft
Nearby Weather Stations

Elev 686 ft 30.37 °N, 97.67 °W | Updated 7 minutes ago

Overcast
Overcast
71.6 °F
Feels Like 75 °F
N
4.7
Wind Variable Wind from North

Today
High -- | Low -- °F
--% Chance of Precip.
Yesterday
High -- | Low -- °F
Precip. -- in
Pressure 29.92 in
Visibility 10.0 miles
Clouds Mostly Cloudy 3400 ft
Mostly Cloudy 4100 ft
Heat Index 75 °F
Dew Point 60 °F
Humidity 66%
Rainfall 0.00 in
Snow Depth Not available.
7:12 AM 6:17 PM
Waxing Crescent, 44% visible
METAR KEDC 141935Z AUTO 21013G19KT 10SM BKN034 BKN041 22/14 A2992 RMK AO2
Pressure 29.92 in
Visibility 10.0 miles
Clouds Mostly Cloudy 3400 ft
Mostly Cloudy 4100 ft
Heat Index 75 °F
Dew Point 60 °F
Humidity 66%
Rainfall 0.00 in
Snow Depth Not available.
7:12 AM 6:17 PM
Waxing Crescent, 44% visible
METAR KEDC 141935Z AUTO 21013G19KT 10SM BKN034 BKN041 22/14 A2992 RMK AO2

10-Day Weather Forecast

Almanac

Astronomy

Feb. 14, 2016 Rise Set
Actual Time
Civil Twilight
Nautical Twilight
Astronomical Twilight
Moon
Length of Visible Light
Length of Day
Tomorrow will be .
, % of the Moon is Illuminated

Today's Extremes

State Highs State Lows

Community

WunderPhotos

Upload Photos

1,892,878 photos uploaded!

WunderBlog® & News

Nearby

Air Quality

  Air Quality AQ Index Pollutant
Not available.

Snow Depth

Station Depth Elevation

Earthquake Activity

City Distance Mag. Time & Date
Minimum magnitude displayed is 2.5.

Coastal Water Temperatures

Place Temperature

Stations

Nearby Weather Stations

Station Location Temp. Windchill Dew Point Humidity Wind Precip. Elev Updated Type
                   

Watches & Warnings

There are currently no watches in effect.